KSME/SME METAR and TAF weather

Enter ICAO airport designator
Station Type Date Time Source
KSME METAR 2019/08/22 09:35 UTC NOAA

KSME 220935Z AUTO 00000KT 10SM CLR 22/22 A3003 RMK AO2 LTG DSNT N


Station Type Date Time Source
KSME Decoded METAR 2019/08/22 09:35 UTC NOAA

Station name not available
Aug 22, 2019 - 05:35 AM EDT / 2019.08.22 0935 UTC
Wind: Calm:0
Visibility: 10 mile(s):0
Sky conditions: clear
Weather: Lightning observed
Temperature: 71 F (22 C)
Dew Point: 71 F (22 C)
Relative Humidity: 100%
Pressure (altimeter): 30.03 in. Hg (1016 hPa)
ob: KSME 220935Z AUTO 00000KT 10SM CLR 22/22 A3003 RMK AO2 LTG DSNT N
cycle: 9

Station Type Date Time Source
KSME TAF 2019/08/22 06:30 UTC NOAA

TAF KSME 220526Z 2206/2306 00000KT P6SM FEW050 SCT250
FM221100 VRB03KT P6SM BKN050
FM221400 VRB05KT P6SM VCSH SCT025 BKN050
FM221500 23006KT P6SM VCTS SCT050CB BKN090

Example: see airport list